Campbell Foss — WDC7754 — position and weather

sailwx.info

Track history (hours):
 
Tides and Currents Weather Stations Pressure Air Temp Water Temp Dewpoint Dewpoint Depression Visibility Wind Speed Wind Dir Waves Ship Positions

Campbell Foss

Owner: Foss Maritime Co., Seattle, WA. More information available from US FCC via Universal Licensing System and Coast Guard Vessel Documentation Center.

Last reported at 2016-Apr-29 11:33 UTC. Time now 2016-Apr-29 12:04 UTC.
Position N 33°44' W 118°12'.

Length 23 m; draft 16 m.

Type: Tug. MMSI: 367076360.

Date/timePositionNaut miles runAvg speedWind from/ knotsBaromVisibWave heightAir tempDewpointWater temp
2016-Apr-29 11:33N 33°44' W 118°12'0 0.0
2016-Apr-29 10:33N 33°44' W 118°12'0 0.0
2016-Apr-29 09:33N 33°44' W 118°12'1 1.3
2016-Apr-29 08:33N 33°44' W 118°13'2 1.7
2016-Apr-29 07:29N 33°43' W 118°11'3 2.8
2016-Apr-29 06:33N 33°46' W 118°13'1 0.8
2016-Apr-29 05:33N 33°46' W 118°13'2 1.6
2016-Apr-29 04:33N 33°46' W 118°15'2 0.6
2016-Apr-29 01:24N 33°44' W 118°15'0 0.2
2016-Apr-29 00:22N 33°44' W 118°16'2 3.0
2016-Apr-28 23:33N 33°45' W 118°13'1 1.3
2016-Apr-28 22:33N 33°46' W 118°13'1 1.0
2016-Apr-28 21:33N 33°45' W 118°13'1 0.6
2016-Apr-28 19:33N 33°44' W 118°12'1 1.5
2016-Apr-28 18:33N 33°46' W 118°13'0 0.0
2016-Apr-28 17:31N 33°46' W 118°13'2 1.6
2016-Apr-28 16:33N 33°44' W 118°13'3 2.4
2016-Apr-28 15:26N 33°45' W 118°16'1 1.5
2016-Apr-28 14:33N 33°46' W 118°16'2 1.9
2016-Apr-28 13:33N 33°46' W 118°13'2 2.0
2016-Apr-28 12:33N 33°44' W 118°12'1 1.0
2016-Apr-28 11:33N 33°44' W 118°11'1 1.0
2016-Apr-28 10:33N 33°44' W 118°12'0 0.0
2016-Apr-28 09:33N 33°44' W 118°12'0 0.0
2016-Apr-28 08:33N 33°44' W 118°12'0 0.0
2016-Apr-28 07:33N 33°44' W 118°12'2 1.7
2016-Apr-28 06:32N 33°46' W 118°13'0 0.3
2016-Apr-28 05:33N 33°46' W 118°13'2 1.5
2016-Apr-28 04:13N 33°46' W 118°16'0 0.0
2016-Apr-28 03:32N 33°46' W 118°16'0 0.0
2016-Apr-28 02:33N 33°46' W 118°16'0 0.0
2016-Apr-28 01:12N 33°46' W 118°16'0 0.0
2016-Apr-28 00:16N 33°46' W 118°16'0 0.0
2016-Apr-27 23:33N 33°46' W 118°16'3 2.4
2016-Apr-27 22:30N 33°44' W 118°13'1 0.7
2016-Apr-27 21:33N 33°45' W 118°13'1 0.7
2016-Apr-27 20:33N 33°45' W 118°12'1 1.1
2016-Apr-27 19:33N 33°46' W 118°13'0 0.0
2016-Apr-27 18:33N 33°46' W 118°13'0 0.4
2016-Apr-27 17:33N 33°46' W 118°13'0 0.3
2016-Apr-27 16:33N 33°46' W 118°13'2 2.4
2016-Apr-27 15:33N 33°46' W 118°16'0 0.3
2016-Apr-27 14:32N 33°46' W 118°16'3 3.5
2016-Apr-27 13:33N 33°44' W 118°12'1 1.2
2016-Apr-27 12:33N 33°45' W 118°13'2 1.2
2016-Apr-27 10:32N 33°43' W 118°11'2 2.5
2016-Apr-27 09:33N 33°45' W 118°13'1 1.4
2016-Apr-27 08:33N 33°46' W 118°14'0 0.5
2016-Apr-27 07:33N 33°46' W 118°15'1 1.3
2016-Apr-27 06:33N 33°46' W 118°13'1 0.7
2016-Apr-27 05:33N 33°46' W 118°13'0 0.0
2016-Apr-27 04:33N 33°46' W 118°13'0 0.0
2016-Apr-27 03:33N 33°46' W 118°13'1 0.5
2016-Apr-27 02:33N 33°46' W 118°13'2 2.3
2016-Apr-27 01:32N 33°44' W 118°13'2 2.0
2016-Apr-27 00:33N 33°46' W 118°13'1 0.6
2016-Apr-26 23:33N 33°46' W 118°13'0 0.0
2016-Apr-26 22:33N 33°46' W 118°13'1 1.3
2016-Apr-26 21:33N 33°45' W 118°14'1 1.2
2016-Apr-26 20:30N 33°44' W 118°13'1 1.6
2016-Apr-26 19:33N 33°46' W 118°13'0 0.0
2016-Apr-26 18:31N 33°46' W 118°13'2 1.6
2016-Apr-26 17:33N 33°46' W 118°15'1 0.5
2016-Apr-26 16:33N 33°46' W 118°16'0 0.2
2016-Apr-26 15:33N 33°46' W 118°16'3 2.5
2016-Apr-26 14:32N 33°44' W 118°14'0 0.4
2016-Apr-26 13:33N 33°44' W 118°14'2 1.5
2016-Apr-26 12:31N 33°44' W 118°16'1 1.1
2016-Apr-26 11:25N 33°43' W 118°15'2 2.2
2016-Apr-26 10:29N 33°44' W 118°17'2 2.1
2016-Apr-26 09:33N 33°46' W 118°16'1 1.0
2016-Apr-26 08:33N 33°45' W 118°16'2 1.9
2016-Apr-26 07:14N 33°44' W 118°14'2 3.0
2016-Apr-26 06:33N 33°46' W 118°13'0 0.0
2016-Apr-26 05:33N 33°46' W 118°13'1 0.6
2016-Apr-26 04:33N 33°46' W 118°13'0 0.0
2016-Apr-26 03:33N 33°46' W 118°13'0 0.0
2016-Apr-26 02:33N 33°46' W 118°13'1 1.4
2016-Apr-26 01:33N 33°45' W 118°14'1 0.6
2016-Apr-26 00:33N 33°45' W 118°13'0 0.1
2016-Apr-25 23:26N 33°45' W 118°13'2 2.1
2016-Apr-25 22:33N 33°46' W 118°15'3 1.3
2016-Apr-25 20:33N 33°45' W 118°12'1 1.0
2016-Apr-25 19:33N 33°44' W 118°13'2 1.5
2016-Apr-25 18:33N 33°46' W 118°13'0 0.0
2016-Apr-25 17:33N 33°46' W 118°13'1 1.3
2016-Apr-25 16:33N 33°44' W 118°13'1 0.2
2016-Apr-25 13:33N 33°45' W 118°13'0 0.0
2016-Apr-25 12:33N 33°45' W 118°13'1 0.7
2016-Apr-25 11:33N 33°45' W 118°14'1 0.7
2016-Apr-25 10:33N 33°45' W 118°13'0 0.0
2016-Apr-25 09:33N 33°45' W 118°13'0 0.0
2016-Apr-25 08:33N 33°45' W 118°13'0 0.0
2016-Apr-25 07:33N 33°45' W 118°13'1 0.7
2016-Apr-25 06:33N 33°46' W 118°13'0 0.0
2016-Apr-25 05:33N 33°46' W 118°13'2 2.1
2016-Apr-25 04:32N 33°46' W 118°16'0 0.0
2016-Apr-25 03:04N 33°46' W 118°16'0 0.0
2016-Apr-25 02:28N 33°46' W 118°16'0 0.0
2016-Apr-25 00:25N 33°46' W 118°16'0 0.0
2016-Apr-24 23:20N 33°46' W 118°16'0 0.0
2016-Apr-24 22:33N 33°46' W 118°16'0 0.1
2016-Apr-24 21:33N 33°46' W 118°16'3 2.2
2016-Apr-24 20:11N 33°43' W 118°14'3 5.3
2016-Apr-24 19:33N 33°46' W 118°13'1 0.8
2016-Apr-24 18:33N 33°46' W 118°13'0 0.0
2016-Apr-24 17:33N 33°46' W 118°13'3 2.4
2016-Apr-24 16:23N 33°44' W 118°15'0 0.0
2016-Apr-24 15:25N 33°44' W 118°15'0 0.0
2016-Apr-24 14:10N 33°44' W 118°15'0 0.0
2016-Apr-24 13:33N 33°44' W 118°15'3 0.6
2016-Apr-24 08:32N 33°44' W 118°12'1 1.5
2016-Apr-24 07:32N 33°45' W 118°13'1 0.6
2016-Apr-24 06:21N 33°46' W 118°13'1 0.8
2016-Apr-24 05:32N 33°46' W 118°13'0 0.0
2016-Apr-24 04:29N 33°46' W 118°13'0 0.0
2016-Apr-24 03:31N 33°46' W 118°13'0 0.0
2016-Apr-24 02:30N 33°46' W 118°13'0 0.0
2016-Apr-24 00:30N 33°46' W 118°13'2 2.5
2016-Apr-23 23:33N 33°44' W 118°11'0 0.3
2016-Apr-23 22:30N 33°44' W 118°11'2 2.3
2016-Apr-23 21:33N 33°45' W 118°13'0 0.0
2016-Apr-23 20:03N 33°45' W 118°13'0 0.1
2016-Apr-23 18:10N 33°45' W 118°13'0 0.1
2016-Apr-23 16:28N 33°45' W 118°13'1 0.3
2016-Apr-23 14:24N 33°45' W 118°13'1 0.3
2016-Apr-23 12:16N 33°45' W 118°12'1 0.8
2016-Apr-23 11:25N 33°45' W 118°13'0 0.0
2016-Apr-23 10:24N 33°45' W 118°13'1 0.7
2016-Apr-23 09:19N 33°44' W 118°12'1 0.7
2016-Apr-23 08:33N 33°45' W 118°13'0 0.3
2016-Apr-23 07:14N 33°45' W 118°13'1 0.8
2016-Apr-23 06:22N 33°46' W 118°13'0 0.1
2016-Apr-23 00:33N 33°45' W 118°13'0 0.0
2016-Apr-22 23:25N 33°45' W 118°13'0 0.1
2016-Apr-22 19:09N 33°46' W 118°13'0 0.0
2016-Apr-22 18:31N 33°46' W 118°13'3 0.5
2016-Apr-22 13:19N 33°43' W 118°11'1 1.4
2016-Apr-22 12:19N 33°45' W 118°12'1 1.1
2016-Apr-22 11:31N 33°44' W 118°12'2 1.5
2016-Apr-22 10:28N 33°45' W 118°13'0 0.0
2016-Apr-22 09:05N 33°45' W 118°13'0 0.0
2016-Apr-22 08:24N 33°45' W 118°13'1 1.1
2016-Apr-22 07:30N 33°46' W 118°13'1 0.3
2016-Apr-22 03:30N 33°46' W 118°15'1 1.5
2016-Apr-22 02:33N 33°46' W 118°13'0 0.2
2016-Apr-22 00:32N 33°46' W 118°13'0 0.1
2016-Apr-21 23:33N 33°46' W 118°13'0 0.4
2016-Apr-21 22:31N 33°46' W 118°13'3 3.5
2016-Apr-21 21:32N 33°44' W 118°16'2 2.3
2016-Apr-21 20:32N 33°46' W 118°16'0 0.0
2016-Apr-21 19:31N 33°46' W 118°16'2 2.3
2016-Apr-21 18:33N 33°46' W 118°13'0 0.0
2016-Apr-21 17:33N 33°46' W 118°13'0 0.5
2016-Apr-21 16:33N 33°45' W 118°13'0 0.0
2016-Apr-21 15:31N 33°45' W 118°13'0 0.0
2016-Apr-21 14:32N 33°45' W 118°13'0 0.0
2016-Apr-21 13:32N 33°45' W 118°13'2 1.7
2016-Apr-21 12:33N 33°44' W 118°12'1 0.6
2016-Apr-21 11:33N 33°44' W 118°12'4 4.0
2016-Apr-21 10:33N 33°45' W 118°16'1 1.0
2016-Apr-21 09:22N 33°46' W 118°16'3 3.2
2016-Apr-21 08:33N 33°43' W 118°16'3 3.1
2016-Apr-21 07:32N 33°45' W 118°13'1 0.7
2016-Apr-21 06:33N 33°46' W 118°13'0 0.5
2016-Apr-21 05:30N 33°45' W 118°13'0 0.0
2016-Apr-21 04:33N 33°45' W 118°13'0 0.2
2016-Apr-21 03:31N 33°45' W 118°13'1 1.2
2016-Apr-21 02:20N 33°44' W 118°13'0 0.1
2016-Apr-21 01:25N 33°44' W 118°13'3 2.9
2016-Apr-21 00:32N 33°46' W 118°13'1 0.5
2016-Apr-20 23:06N 33°46' W 118°13'2 0.7
2016-Apr-20 20:17N 33°44' W 118°14'2 2.5
2016-Apr-20 19:33N 33°46' W 118°13'0 0.0
2016-Apr-20 18:32N 33°46' W 118°13'2 2.4
2016-Apr-20 17:33N 33°44' W 118°15'2 2.0
2016-Apr-20 16:33N 33°46' W 118°16'0 0.1
2016-Apr-20 15:08N 33°46' W 118°16'0 0.0
2016-Apr-20 14:24N 33°46' W 118°16'2 2.8
2016-Apr-20 13:33N 33°45' W 118°13'1 1.2
2016-Apr-20 12:33N 33°45' W 118°14'0 0.4
2016-Apr-20 11:33N 33°45' W 118°14'1 1.0
2016-Apr-20 10:33N 33°45' W 118°13'2 1.7
2016-Apr-20 09:33N 33°46' W 118°13'0 0.0
2016-Apr-20 08:33N 33°46' W 118°13'1 0.6
2016-Apr-20 07:33N 33°46' W 118°13'0 0.2
2016-Apr-20 06:33N 33°46' W 118°13'0 0.2
2016-Apr-20 05:33N 33°46' W 118°13'3 2.6
2016-Apr-20 04:31N 33°43' W 118°11'1 0.6
2016-Apr-20 03:33N 33°44' W 118°12'2 2.0
2016-Apr-20 02:33N 33°45' W 118°13'0 0.0
2016-Apr-20 01:33N 33°45' W 118°13'0 0.0
2016-Apr-20 00:30N 33°45' W 118°13'0 0.0
2016-Apr-19 23:33N 33°45' W 118°13'0 0.0
2016-Apr-19 22:33N 33°45' W 118°13'1 1.2
2016-Apr-19 21:28N 33°46' W 118°13'1 0.9
2016-Apr-19 20:33N 33°46' W 118°14'1 0.8
2016-Apr-19 19:31N 33°46' W 118°13'1 0.7
2016-Apr-19 18:33N 33°46' W 118°14'2 1.7
2016-Apr-19 17:33N 33°46' W 118°16'2 1.8
2016-Apr-19 16:25N 33°44' W 118°16'0 0.0
2016-Apr-19 15:33N 33°44' W 118°16'2 1.6
2016-Apr-19 14:33N 33°45' W 118°16'2 2.4
2016-Apr-19 13:33N 33°46' W 118°13'2 2.5
2016-Apr-19 12:33N 33°44' W 118°11'  
Track history (hours):
 
Tides and Currents Weather Stations Pressure Air Temp Water Temp Dewpoint Dewpoint Depression Visibility Wind Speed Wind Dir Waves Ship Positions

Campbell Foss

Owner: Foss Maritime Co., Seattle, WA. More information available from US FCC via Universal Licensing System and Coast Guard Vessel Documentation Center.

Last reported at 2016-Apr-29 11:33 UTC. Time now 2016-Apr-29 12:04 UTC.
Position N 33°44' W 118°12'.

Length 23 m; draft 16 m.

Type: Tug. MMSI: 367076360.

Date/timePositionNaut miles runAvg speedWind from/ knotsBaromVisibWave heightAir tempDewpointWater temp
2016-Apr-29 11:33N 33°44' W 118°12'0 0.0
2016-Apr-29 10:33N 33°44' W 118°12'0 0.0
2016-Apr-29 09:33N 33°44' W 118°12'1 1.3
2016-Apr-29 08:33N 33°44' W 118°13'2 1.7
2016-Apr-29 07:29N 33°43' W 118°11'3 2.8
2016-Apr-29 06:33N 33°46' W 118°13'1 0.8
2016-Apr-29 05:33N 33°46' W 118°13'2 1.6
2016-Apr-29 04:33N 33°46' W 118°15'2 0.6
2016-Apr-29 01:24N 33°44' W 118°15'0 0.2
2016-Apr-29 00:22N 33°44' W 118°16'2 3.0
2016-Apr-28 23:33N 33°45' W 118°13'1 1.3
2016-Apr-28 22:33N 33°46' W 118°13'1 1.0
2016-Apr-28 21:33N 33°45' W 118°13'1 0.6
2016-Apr-28 19:33N 33°44' W 118°12'1 1.5
2016-Apr-28 18:33N 33°46' W 118°13'0 0.0
2016-Apr-28 17:31N 33°46' W 118°13'2 1.6
2016-Apr-28 16:33N 33°44' W 118°13'3 2.4
2016-Apr-28 15:26N 33°45' W 118°16'1 1.5
2016-Apr-28 14:33N 33°46' W 118°16'2 1.9
2016-Apr-28 13:33N 33°46' W 118°13'2 2.0
2016-Apr-28 12:33N 33°44' W 118°12'1 1.0
2016-Apr-28 11:33N 33°44' W 118°11'1 1.0
2016-Apr-28 10:33N 33°44' W 118°12'0 0.0
2016-Apr-28 09:33N 33°44' W 118°12'0 0.0
2016-Apr-28 08:33N 33°44' W 118°12'0 0.0
2016-Apr-28 07:33N 33°44' W 118°12'2 1.7
2016-Apr-28 06:32N 33°46' W 118°13'0 0.3
2016-Apr-28 05:33N 33°46' W 118°13'2 1.5
2016-Apr-28 04:13N 33°46' W 118°16'0 0.0
2016-Apr-28 03:32N 33°46' W 118°16'0 0.0
2016-Apr-28 02:33N 33°46' W 118°16'0 0.0
2016-Apr-28 01:12N 33°46' W 118°16'0 0.0
2016-Apr-28 00:16N 33°46' W 118°16'0 0.0
2016-Apr-27 23:33N 33°46' W 118°16'3 2.4
2016-Apr-27 22:30N 33°44' W 118°13'1 0.7
2016-Apr-27 21:33N 33°45' W 118°13'1 0.7
2016-Apr-27 20:33N 33°45' W 118°12'1 1.1
2016-Apr-27 19:33N 33°46' W 118°13'0 0.0
2016-Apr-27 18:33N 33°46' W 118°13'0 0.4
2016-Apr-27 17:33N 33°46' W 118°13'0 0.3
2016-Apr-27 16:33N 33°46' W 118°13'2 2.4
2016-Apr-27 15:33N 33°46' W 118°16'0 0.3
2016-Apr-27 14:32N 33°46' W 118°16'3 3.5
2016-Apr-27 13:33N 33°44' W 118°12'1 1.2
2016-Apr-27 12:33N 33°45' W 118°13'2 1.2
2016-Apr-27 10:32N 33°43' W 118°11'2 2.5
2016-Apr-27 09:33N 33°45' W 118°13'1 1.4
2016-Apr-27 08:33N 33°46' W 118°14'0 0.5
2016-Apr-27 07:33N 33°46' W 118°15'1 1.3
2016-Apr-27 06:33N 33°46' W 118°13'1 0.7
2016-Apr-27 05:33N 33°46' W 118°13'0 0.0
2016-Apr-27 04:33N 33°46' W 118°13'0 0.0
2016-Apr-27 03:33N 33°46' W 118°13'1 0.5
2016-Apr-27 02:33N 33°46' W 118°13'2 2.3
2016-Apr-27 01:32N 33°44' W 118°13'2 2.0
2016-Apr-27 00:33N 33°46' W 118°13'1 0.6
2016-Apr-26 23:33N 33°46' W 118°13'0 0.0
2016-Apr-26 22:33N 33°46' W 118°13'1 1.3
2016-Apr-26 21:33N 33°45' W 118°14'1 1.2
2016-Apr-26 20:30N 33°44' W 118°13'1 1.6
2016-Apr-26 19:33N 33°46' W 118°13'0 0.0
2016-Apr-26 18:31N 33°46' W 118°13'2 1.6
2016-Apr-26 17:33N 33°46' W 118°15'1 0.5
2016-Apr-26 16:33N 33°46' W 118°16'0 0.2
2016-Apr-26 15:33N 33°46' W 118°16'3 2.5
2016-Apr-26 14:32N 33°44' W 118°14'0 0.4
2016-Apr-26 13:33N 33°44' W 118°14'2 1.5
2016-Apr-26 12:31N 33°44' W 118°16'1 1.1
2016-Apr-26 11:25N 33°43' W 118°15'2 2.2
2016-Apr-26 10:29N 33°44' W 118°17'2 2.1
2016-Apr-26 09:33N 33°46' W 118°16'1 1.0
2016-Apr-26 08:33N 33°45' W 118°16'2 1.9
2016-Apr-26 07:14N 33°44' W 118°14'2 3.0
2016-Apr-26 06:33N 33°46' W 118°13'0 0.0
2016-Apr-26 05:33N 33°46' W 118°13'1 0.6
2016-Apr-26 04:33N 33°46' W 118°13'0 0.0
2016-Apr-26 03:33N 33°46' W 118°13'0 0.0
2016-Apr-26 02:33N 33°46' W 118°13'1 1.4
2016-Apr-26 01:33N 33°45' W 118°14'1 0.6
2016-Apr-26 00:33N 33°45' W 118°13'0 0.1
2016-Apr-25 23:26N 33°45' W 118°13'2 2.1
2016-Apr-25 22:33N 33°46' W 118°15'3 1.3
2016-Apr-25 20:33N 33°45' W 118°12'1 1.0
2016-Apr-25 19:33N 33°44' W 118°13'2 1.5
2016-Apr-25 18:33N 33°46' W 118°13'0 0.0
2016-Apr-25 17:33N 33°46' W 118°13'1 1.3
2016-Apr-25 16:33N 33°44' W 118°13'1 0.2
2016-Apr-25 13:33N 33°45' W 118°13'0 0.0
2016-Apr-25 12:33N 33°45' W 118°13'1 0.7
2016-Apr-25 11:33N 33°45' W 118°14'1 0.7
2016-Apr-25 10:33N 33°45' W 118°13'0 0.0
2016-Apr-25 09:33N 33°45' W 118°13'0 0.0
2016-Apr-25 08:33N 33°45' W 118°13'0 0.0
2016-Apr-25 07:33N 33°45' W 118°13'1 0.7
2016-Apr-25 06:33N 33°46' W 118°13'0 0.0
2016-Apr-25 05:33N 33°46' W 118°13'2 2.1
2016-Apr-25 04:32N 33°46' W 118°16'0 0.0
2016-Apr-25 03:04N 33°46' W 118°16'0 0.0
2016-Apr-25 02:28N 33°46' W 118°16'0 0.0
2016-Apr-25 00:25N 33°46' W 118°16'0 0.0
2016-Apr-24 23:20N 33°46' W 118°16'0 0.0
2016-Apr-24 22:33N 33°46' W 118°16'0 0.1
2016-Apr-24 21:33N 33°46' W 118°16'3 2.2
2016-Apr-24 20:11N 33°43' W 118°14'3 5.3
2016-Apr-24 19:33N 33°46' W 118°13'1 0.8
2016-Apr-24 18:33N 33°46' W 118°13'0 0.0
2016-Apr-24 17:33N 33°46' W 118°13'3 2.4
2016-Apr-24 16:23N 33°44' W 118°15'0 0.0
2016-Apr-24 15:25N 33°44' W 118°15'0 0.0
2016-Apr-24 14:10N 33°44' W 118°15'0 0.0
2016-Apr-24 13:33N 33°44' W 118°15'3 0.6
2016-Apr-24 08:32N 33°44' W 118°12'1 1.5
2016-Apr-24 07:32N 33°45' W 118°13'1 0.6
2016-Apr-24 06:21N 33°46' W 118°13'1 0.8
2016-Apr-24 05:32N 33°46' W 118°13'0 0.0
2016-Apr-24 04:29N 33°46' W 118°13'0 0.0
2016-Apr-24 03:31N 33°46' W 118°13'0 0.0
2016-Apr-24 02:30N 33°46' W 118°13'0 0.0
2016-Apr-24 00:30N 33°46' W 118°13'2 2.5
2016-Apr-23 23:33N 33°44' W 118°11'0 0.3
2016-Apr-23 22:30N 33°44' W 118°11'2 2.3
2016-Apr-23 21:33N 33°45' W 118°13'0 0.0
2016-Apr-23 20:03N 33°45' W 118°13'0 0.1
2016-Apr-23 18:10N 33°45' W 118°13'0 0.1
2016-Apr-23 16:28N 33°45' W 118°13'1 0.3
2016-Apr-23 14:24N 33°45' W 118°13'1 0.3
2016-Apr-23 12:16N 33°45' W 118°12'1 0.8
2016-Apr-23 11:25N 33°45' W 118°13'0 0.0
2016-Apr-23 10:24N 33°45' W 118°13'1 0.7
2016-Apr-23 09:19N 33°44' W 118°12'1 0.7
2016-Apr-23 08:33N 33°45' W 118°13'0 0.3
2016-Apr-23 07:14N 33°45' W 118°13'1 0.8
2016-Apr-23 06:22N 33°46' W 118°13'0 0.1
2016-Apr-23 00:33N 33°45' W 118°13'0 0.0
2016-Apr-22 23:25N 33°45' W 118°13'0 0.1
2016-Apr-22 19:09N 33°46' W 118°13'0 0.0
2016-Apr-22 18:31N 33°46' W 118°13'3 0.5
2016-Apr-22 13:19N 33°43' W 118°11'1 1.4
2016-Apr-22 12:19N 33°45' W 118°12'1 1.1
2016-Apr-22 11:31N 33°44' W 118°12'2 1.5
2016-Apr-22 10:28N 33°45' W 118°13'0 0.0
2016-Apr-22 09:05N 33°45' W 118°13'0 0.0
2016-Apr-22 08:24N 33°45' W 118°13'1 1.1
2016-Apr-22 07:30N 33°46' W 118°13'1 0.3
2016-Apr-22 03:30N 33°46' W 118°15'1 1.5
2016-Apr-22 02:33N 33°46' W 118°13'0 0.2
2016-Apr-22 00:32N 33°46' W 118°13'0 0.1
2016-Apr-21 23:33N 33°46' W 118°13'0 0.4
2016-Apr-21 22:31N 33°46' W 118°13'3 3.5
2016-Apr-21 21:32N 33°44' W 118°16'2 2.3
2016-Apr-21 20:32N 33°46' W 118°16'0 0.0
2016-Apr-21 19:31N 33°46' W 118°16'2 2.3
2016-Apr-21 18:33N 33°46' W 118°13'0 0.0
2016-Apr-21 17:33N 33°46' W 118°13'0 0.5
2016-Apr-21 16:33N 33°45' W 118°13'0 0.0
2016-Apr-21 15:31N 33°45' W 118°13'0 0.0
2016-Apr-21 14:32N 33°45' W 118°13'0 0.0
2016-Apr-21 13:32N 33°45' W 118°13'2 1.7
2016-Apr-21 12:33N 33°44' W 118°12'1 0.6
2016-Apr-21 11:33N 33°44' W 118°12'4 4.0
2016-Apr-21 10:33N 33°45' W 118°16'1 1.0
2016-Apr-21 09:22N 33°46' W 118°16'3 3.2
2016-Apr-21 08:33N 33°43' W 118°16'3 3.1
2016-Apr-21 07:32N 33°45' W 118°13'1 0.7
2016-Apr-21 06:33N 33°46' W 118°13'0 0.5
2016-Apr-21 05:30N 33°45' W 118°13'0 0.0
2016-Apr-21 04:33N 33°45' W 118°13'0 0.2
2016-Apr-21 03:31N 33°45' W 118°13'1 1.2
2016-Apr-21 02:20N 33°44' W 118°13'0 0.1
2016-Apr-21 01:25N 33°44' W 118°13'3 2.9
2016-Apr-21 00:32N 33°46' W 118°13'1 0.5
2016-Apr-20 23:06N 33°46' W 118°13'2 0.7
2016-Apr-20 20:17N 33°44' W 118°14'2 2.5
2016-Apr-20 19:33N 33°46' W 118°13'0 0.0
2016-Apr-20 18:32N 33°46' W 118°13'2 2.4
2016-Apr-20 17:33N 33°44' W 118°15'2 2.0
2016-Apr-20 16:33N 33°46' W 118°16'0 0.1
2016-Apr-20 15:08N 33°46' W 118°16'0 0.0
2016-Apr-20 14:24N 33°46' W 118°16'2 2.8
2016-Apr-20 13:33N 33°45' W 118°13'1 1.2
2016-Apr-20 12:33N 33°45' W 118°14'0 0.4
2016-Apr-20 11:33N 33°45' W 118°14'1 1.0
2016-Apr-20 10:33N 33°45' W 118°13'2 1.7
2016-Apr-20 09:33N 33°46' W 118°13'0 0.0
2016-Apr-20 08:33N 33°46' W 118°13'1 0.6
2016-Apr-20 07:33N 33°46' W 118°13'0 0.2
2016-Apr-20 06:33N 33°46' W 118°13'0 0.2
2016-Apr-20 05:33N 33°46' W 118°13'3 2.6
2016-Apr-20 04:31N 33°43' W 118°11'1 0.6
2016-Apr-20 03:33N 33°44' W 118°12'2 2.0
2016-Apr-20 02:33N 33°45' W 118°13'0 0.0
2016-Apr-20 01:33N 33°45' W 118°13'0 0.0
2016-Apr-20 00:30N 33°45' W 118°13'0 0.0
2016-Apr-19 23:33N 33°45' W 118°13'0 0.0
2016-Apr-19 22:33N 33°45' W 118°13'1 1.2
2016-Apr-19 21:28N 33°46' W 118°13'1 0.9
2016-Apr-19 20:33N 33°46' W 118°14'1 0.8
2016-Apr-19 19:31N 33°46' W 118°13'1 0.7
2016-Apr-19 18:33N 33°46' W 118°14'2 1.7
2016-Apr-19 17:33N 33°46' W 118°16'2 1.8
2016-Apr-19 16:25N 33°44' W 118°16'0 0.0
2016-Apr-19 15:33N 33°44' W 118°16'2 1.6
2016-Apr-19 14:33N 33°45' W 118°16'2 2.4
2016-Apr-19 13:33N 33°46' W 118°13'2 2.5
2016-Apr-19 12:33N 33°44' W 118°11'  

Dump ship's entire track history